sensor_id;sensor_type;location;lat;lon;timestamp;pressure;altitude;pressure_sealevel;temperature;humidity
12666;BME280;58531;59.050;17.416;2022-09-29T00:00:34;99882.28;;;6.84;100.00
12666;BME280;58531;59.050;17.416;2022-09-29T00:03:01;99878.56;;;6.69;100.00
12666;BME280;58531;59.050;17.416;2022-09-29T00:05:27;99871.34;;;6.57;100.00
12666;BME280;58531;59.050;17.416;2022-09-29T00:07:54;99865.19;;;6.60;100.00
12666;BME280;58531;59.050;17.416;2022-09-29T00:10:22;99870.63;;;6.56;100.00
12666;BME280;58531;59.050;17.416;2022-09-29T00:12:49;99870.81;;;6.62;100.00
12666;BME280;58531;59.050;17.416;2022-09-29T00:15:16;99870.69;;;6.65;100.00
12666;BME280;58531;59.050;17.416;2022-09-29T00:17:42;99866.16;;;6.66;100.00
12666;BME280;58531;59.050;17.416;2022-09-29T00:20:09;99857.09;;;6.63;100.00
12666;BME280;58531;59.050;17.416;2022-09-29T00:22:36;99865.81;;;6.64;100.00
12666;BME280;58531;59.050;17.416;2022-09-29T00:25:03;99858.41;;;6.59;100.00
12666;BME280;58531;59.050;17.416;2022-09-29T00:27:31;99866.69;;;6.61;100.00
12666;BME280;58531;59.050;17.416;2022-09-29T00:29:58;99868.25;;;6.71;100.00
12666;BME280;58531;59.050;17.416;2022-09-29T00:32:25;99866.03;;;6.82;100.00
12666;BME280;58531;59.050;17.416;2022-09-29T00:34:51;99864.19;;;6.91;100.00
12666;BME280;58531;59.050;17.416;2022-09-29T00:37:18;99864.72;;;6.98;100.00
12666;BME280;58531;59.050;17.416;2022-09-29T00:39:44;99872.75;;;7.07;100.00
12666;BME280;58531;59.050;17.416;2022-09-29T00:42:11;99866.06;;;7.15;100.00
12666;BME280;58531;59.050;17.416;2022-09-29T00:44:56;99867.84;;;7.18;100.00
12666;BME280;58531;59.050;17.416;2022-09-29T00:47:25;99866.16;;;7.24;100.00
12666;BME280;58531;59.050;17.416;2022-09-29T00:49:55;99868.25;;;7.29;100.00
12666;BME280;58531;59.050;17.416;2022-09-29T00:52:28;99866.28;;;7.42;100.00
12666;BME280;58531;59.050;17.416;2022-09-29T00:54:57;99866.03;;;7.49;100.00
12666;BME280;58531;59.050;17.416;2022-09-29T00:57:28;99866.44;;;7.60;100.00
12666;BME280;58531;59.050;17.416;2022-09-29T01:00:00;99873.72;;;7.69;100.00
12666;BME280;58531;59.050;17.416;2022-09-29T01:02:28;99874.78;;;7.71;100.00
12666;BME280;58531;59.050;17.416;2022-09-29T01:04:57;99862.72;;;7.79;100.00
12666;BME280;58531;59.050;17.416;2022-09-29T01:07:26;99871.66;;;7.94;100.00
12666;BME280;58531;59.050;17.416;2022-09-29T01:09:54;99872.59;;;8.00;100.00
12666;BME280;58531;59.050;17.416;2022-09-29T01:12:22;99869.50;;;8.02;100.00
12666;BME280;58531;59.050;17.416;2022-09-29T01:14:50;99869.38;;;8.05;100.00
12666;BME280;58531;59.050;17.416;2022-09-29T01:17:19;99867.88;;;8.04;100.00
12666;BME280;58531;59.050;17.416;2022-09-29T01:19:54;99867.16;;;8.04;100.00
12666;BME280;58531;59.050;17.416;2022-09-29T01:22:40;99859.50;;;8.06;100.00
12666;BME280;58531;59.050;17.416;2022-09-29T01:28:20;99854.91;;;8.06;100.00
12666;BME280;58531;59.050;17.416;2022-09-29T01:31:11;99854.59;;;8.04;100.00
12666;BME280;58531;59.050;17.416;2022-09-29T01:33:45;99864.50;;;8.04;100.00
12666;BME280;58531;59.050;17.416;2022-09-29T01:36:24;99858.13;;;8.01;100.00
12666;BME280;58531;59.050;17.416;2022-09-29T01:39:06;99852.50;;;7.99;100.00
12666;BME280;58531;59.050;17.416;2022-09-29T01:41:39;99857.50;;;7.97;100.00
12666;BME280;58531;59.050;17.416;2022-09-29T01:44:13;99863.69;;;7.94;100.00
12666;BME280;58531;59.050;17.416;2022-09-29T01:46:46;99861.63;;;7.89;100.00
12666;BME280;58531;59.050;17.416;2022-09-29T01:49:16;99856.53;;;7.82;100.00
12666;BME280;58531;59.050;17.416;2022-09-29T01:51:47;99856.78;;;7.75;100.00
12666;BME280;58531;59.050;17.416;2022-09-29T01:54:18;99857.03;;;7.68;100.00
12666;BME280;58531;59.050;17.416;2022-09-29T01:56:50;99866.44;;;7.60;100.00
12666;BME280;58531;59.050;17.416;2022-09-29T01:59:23;99859.88;;;7.52;100.00
12666;BME280;58531;59.050;17.416;2022-09-29T02:01:56;99860.84;;;7.46;100.00
12666;BME280;58531;59.050;17.416;2022-09-29T02:04:28;99869.56;;;7.46;100.00
12666;BME280;58531;59.050;17.416;2022-09-29T02:06:59;99860.97;;;7.42;100.00
12666;BME280;58531;59.050;17.416;2022-09-29T02:09:30;99851.19;;;7.39;100.00
12666;BME280;58531;59.050;17.416;2022-09-29T02:12:00;99855.06;;;7.38;100.00
12666;BME280;58531;59.050;17.416;2022-09-29T02:14:31;99855.66;;;7.42;100.00
12666;BME280;58531;59.050;17.416;2022-09-29T02:17:05;99862.75;;;7.45;100.00
12666;BME280;58531;59.050;17.416;2022-09-29T02:19:36;99856.91;;;7.50;100.00
12666;BME280;58531;59.050;17.416;2022-09-29T02:22:04;99853.69;;;7.55;100.00
12666;BME280;58531;59.050;17.416;2022-09-29T02:24:30;99854.00;;;7.57;100.00
12666;BME280;58531;59.050;17.416;2022-09-29T02:26:57;99852.81;;;7.58;100.00
12666;BME280;58531;59.050;17.416;2022-09-29T02:29:25;99856.25;;;7.59;100.00
12666;BME280;58531;59.050;17.416;2022-09-29T02:31:54;99848.69;;;7.57;100.00
12666;BME280;58531;59.050;17.416;2022-09-29T02:34:23;99845.72;;;7.55;100.00
12666;BME280;58531;59.050;17.416;2022-09-29T02:36:57;99844.69;;;7.53;100.00
12666;BME280;58531;59.050;17.416;2022-09-29T02:39:34;99838.31;;;7.50;100.00
12666;BME280;58531;59.050;17.416;2022-09-29T02:42:15;99836.50;;;7.47;100.00
12666;BME280;58531;59.050;17.416;2022-09-29T02:44:57;99841.09;;;7.47;100.00
12666;BME280;58531;59.050;17.416;2022-09-29T02:47:41;99835.03;;;7.46;100.00
12666;BME280;58531;59.050;17.416;2022-09-29T02:50:31;99828.22;;;7.45;100.00
12666;BME280;58531;59.050;17.416;2022-09-29T02:53:05;99829.84;;;7.43;100.00
12666;BME280;58531;59.050;17.416;2022-09-29T02:55:40;99837.06;;;7.42;100.00
12666;BME280;58531;59.050;17.416;2022-09-29T02:58:13;99835.16;;;7.43;100.00
12666;BME280;58531;59.050;17.416;2022-09-29T03:00:41;99837.38;;;7.44;100.00
12666;BME280;58531;59.050;17.416;2022-09-29T03:03:09;99842.06;;;7.40;100.00
12666;BME280;58531;59.050;17.416;2022-09-29T03:05:38;99846.19;;;7.41;100.00
12666;BME280;58531;59.050;17.416;2022-09-29T03:08:04;99845.03;;;7.42;100.00
12666;BME280;58531;59.050;17.416;2022-09-29T03:10:31;99845.59;;;7.37;100.00
12666;BME280;58531;59.050;17.416;2022-09-29T03:12:57;99849.84;;;7.35;100.00
12666;BME280;58531;59.050;17.416;2022-09-29T03:15:24;99859.13;;;7.30;100.00
12666;BME280;58531;59.050;17.416;2022-09-29T03:17:53;99846.38;;;7.25;100.00
12666;BME280;58531;59.050;17.416;2022-09-29T03:20:20;99848.09;;;7.19;100.00
12666;BME280;58531;59.050;17.416;2022-09-29T03:22:48;99852.47;;;7.13;100.00
12666;BME280;58531;59.050;17.416;2022-09-29T03:25:16;99846.53;;;7.09;100.00
12666;BME280;58531;59.050;17.416;2022-09-29T03:27:43;99846.03;;;7.02;100.00
12666;BME280;58531;59.050;17.416;2022-09-29T03:30:11;99843.38;;;7.02;100.00
12666;BME280;58531;59.050;17.416;2022-09-29T03:32:38;99844.66;;;6.97;100.00
12666;BME280;58531;59.050;17.416;2022-09-29T03:35:06;99844.44;;;6.92;100.00
12666;BME280;58531;59.050;17.416;2022-09-29T03:37:33;99843.09;;;6.88;100.00
12666;BME280;58531;59.050;17.416;2022-09-29T03:40:02;99842.88;;;6.82;100.00
12666;BME280;58531;59.050;17.416;2022-09-29T03:42:28;99843.31;;;6.81;100.00
12666;BME280;58531;59.050;17.416;2022-09-29T03:44:55;99855.09;;;6.80;100.00
12666;BME280;58531;59.050;17.416;2022-09-29T03:47:22;99855.50;;;6.78;100.00
12666;BME280;58531;59.050;17.416;2022-09-29T03:49:49;99850.63;;;6.77;100.00
12666;BME280;58531;59.050;17.416;2022-09-29T03:52:15;99853.63;;;6.79;100.00
12666;BME280;58531;59.050;17.416;2022-09-29T03:54:43;99854.78;;;6.78;100.00
12666;BME280;58531;59.050;17.416;2022-09-29T03:57:11;99855.41;;;6.82;100.00
12666;BME280;58531;59.050;17.416;2022-09-29T03:59:38;99846.59;;;6.85;100.00
12666;BME280;58531;59.050;17.416;2022-09-29T04:02:04;99847.78;;;6.84;100.00
12666;BME280;58531;59.050;17.416;2022-09-29T04:04:31;99838.63;;;6.85;100.00
12666;BME280;58531;59.050;17.416;2022-09-29T04:06:58;99841.91;;;6.89;100.00
12666;BME280;58531;59.050;17.416;2022-09-29T04:09:24;99842.66;;;6.89;100.00
12666;BME280;58531;59.050;17.416;2022-09-29T04:11:51;99835.13;;;6.88;100.00
12666;BME280;58531;59.050;17.416;2022-09-29T04:14:19;99832.47;;;6.88;100.00
12666;BME280;58531;59.050;17.416;2022-09-29T04:16:46;99843.81;;;6.88;100.00
12666;BME280;58531;59.050;17.416;2022-09-29T04:19:13;99840.66;;;6.81;100.00
12666;BME280;58531;59.050;17.416;2022-09-29T04:21:40;99845.66;;;6.79;100.00
12666;BME280;58531;59.050;17.416;2022-09-29T04:24:06;99838.53;;;6.76;100.00
12666;BME280;58531;59.050;17.416;2022-09-29T04:26:33;99847.34;;;6.73;100.00
12666;BME280;58531;59.050;17.416;2022-09-29T04:29:00;99851.19;;;6.72;100.00
12666;BME280;58531;59.050;17.416;2022-09-29T04:31:28;99852.75;;;6.69;100.00
12666;BME280;58531;59.050;17.416;2022-09-29T04:33:54;99850.41;;;6.71;100.00
12666;BME280;58531;59.050;17.416;2022-09-29T04:36:21;99854.69;;;6.69;100.00
12666;BME280;58531;59.050;17.416;2022-09-29T04:38:47;99849.06;;;6.67;100.00
12666;BME280;58531;59.050;17.416;2022-09-29T04:41:15;99846.94;;;6.62;100.00
12666;BME280;58531;59.050;17.416;2022-09-29T04:43:42;99848.88;;;6.61;100.00
12666;BME280;58531;59.050;17.416;2022-09-29T04:46:10;99850.44;;;6.59;100.00
12666;BME280;58531;59.050;17.416;2022-09-29T04:48:38;99845.97;;;6.56;100.00
12666;BME280;58531;59.050;17.416;2022-09-29T04:51:05;99840.28;;;6.57;100.00
12666;BME280;58531;59.050;17.416;2022-09-29T04:53:32;99847.69;;;6.62;100.00
12666;BME280;58531;59.050;17.416;2022-09-29T04:56:04;99846.94;;;6.62;100.00
12666;BME280;58531;59.050;17.416;2022-09-29T04:58:30;99852.03;;;6.69;100.00
12666;BME280;58531;59.050;17.416;2022-09-29T05:01:06;99851.81;;;6.76;100.00
12666;BME280;58531;59.050;17.416;2022-09-29T05:03:33;99840.34;;;6.79;100.00
12666;BME280;58531;59.050;17.416;2022-09-29T05:06:02;99843.19;;;6.84;100.00
12666;BME280;58531;59.050;17.416;2022-09-29T05:08:28;99846.03;;;6.90;100.00
12666;BME280;58531;59.050;17.416;2022-09-29T05:10:55;99839.47;;;6.94;100.00
12666;BME280;58531;59.050;17.416;2022-09-29T05:13:22;99842.00;;;6.97;100.00
12666;BME280;58531;59.050;17.416;2022-09-29T05:15:54;99834.34;;;6.99;100.00
12666;BME280;58531;59.050;17.416;2022-09-29T05:18:21;99837.31;;;7.01;100.00
12666;BME280;58531;59.050;17.416;2022-09-29T05:20:48;99833.47;;;7.02;100.00
12666;BME280;58531;59.050;17.416;2022-09-29T05:23:17;99841.44;;;7.02;100.00
12666;BME280;58531;59.050;17.416;2022-09-29T05:25:44;99836.75;;;7.06;100.00
12666;BME280;58531;59.050;17.416;2022-09-29T05:28:11;99835.19;;;7.09;100.00
12666;BME280;58531;59.050;17.416;2022-09-29T05:30:40;99834.19;;;7.15;100.00
12666;BME280;58531;59.050;17.416;2022-09-29T05:33:08;99836.72;;;7.19;100.00
12666;BME280;58531;59.050;17.416;2022-09-29T05:35:35;99839.47;;;7.28;100.00
12666;BME280;58531;59.050;17.416;2022-09-29T05:38:02;99845.28;;;7.35;100.00
12666;BME280;58531;59.050;17.416;2022-09-29T05:40:30;99836.16;;;7.36;100.00
12666;BME280;58531;59.050;17.416;2022-09-29T05:42:57;99836.75;;;7.40;100.00
12666;BME280;58531;59.050;17.416;2022-09-29T05:45:25;99837.06;;;7.42;100.00
12666;BME280;58531;59.050;17.416;2022-09-29T05:47:52;99843.00;;;7.46;100.00
12666;BME280;58531;59.050;17.416;2022-09-29T05:50:19;99836.41;;;7.51;100.00
12666;BME280;58531;59.050;17.416;2022-09-29T05:52:46;99835.97;;;7.52;100.00
12666;BME280;58531;59.050;17.416;2022-09-29T05:55:14;99831.41;;;7.53;100.00
12666;BME280;58531;59.050;17.416;2022-09-29T05:57:46;99838.50;;;7.56;100.00
12666;BME280;58531;59.050;17.416;2022-09-29T06:00:13;99836.56;;;7.56;100.00
12666;BME280;58531;59.050;17.416;2022-09-29T06:02:42;99835.16;;;7.64;100.00
12666;BME280;58531;59.050;17.416;2022-09-29T06:05:09;99835.47;;;7.66;100.00
12666;BME280;58531;59.050;17.416;2022-09-29T06:07:35;99829.28;;;7.69;100.00
12666;BME280;58531;59.050;17.416;2022-09-29T06:10:03;99831.38;;;7.74;100.00
12666;BME280;58531;59.050;17.416;2022-09-29T06:12:33;99833.03;;;7.81;100.00
12666;BME280;58531;59.050;17.416;2022-09-29T06:15:02;99835.91;;;7.86;100.00
12666;BME280;58531;59.050;17.416;2022-09-29T06:17:29;99835.13;;;7.86;100.00
12666;BME280;58531;59.050;17.416;2022-09-29T06:19:56;99834.72;;;7.87;100.00
12666;BME280;58531;59.050;17.416;2022-09-29T06:22:23;99837.84;;;7.95;100.00
12666;BME280;58531;59.050;17.416;2022-09-29T06:24:51;99838.03;;;8.00;100.00
12666;BME280;58531;59.050;17.416;2022-09-29T06:27:18;99831.53;;;8.01;100.00
12666;BME280;58531;59.050;17.416;2022-09-29T06:29:45;99832.44;;;8.07;100.00
12666;BME280;58531;59.050;17.416;2022-09-29T06:32:13;99836.34;;;8.15;100.00
12666;BME280;58531;59.050;17.416;2022-09-29T06:34:40;99841.28;;;8.25;100.00
12666;BME280;58531;59.050;17.416;2022-09-29T06:37:21;99842.81;;;8.35;100.00
12666;BME280;58531;59.050;17.416;2022-09-29T06:40:05;99841.69;;;8.54;100.00
12666;BME280;58531;59.050;17.416;2022-09-29T06:42:33;99853.56;;;8.62;100.00
12666;BME280;58531;59.050;17.416;2022-09-29T06:45:00;99839.19;;;8.60;100.00
12666;BME280;58531;59.050;17.416;2022-09-29T06:47:28;99838.28;;;8.54;100.00
12666;BME280;58531;59.050;17.416;2022-09-29T06:49:55;99846.53;;;8.47;100.00
12666;BME280;58531;59.050;17.416;2022-09-29T06:52:24;99849.50;;;8.49;100.00
12666;BME280;58531;59.050;17.416;2022-09-29T06:54:51;99841.81;;;8.51;100.00
12666;BME280;58531;59.050;17.416;2022-09-29T06:57:17;99852.94;;;8.58;100.00
12666;BME280;58531;59.050;17.416;2022-09-29T06:59:44;99842.41;;;8.55;100.00
12666;BME280;58531;59.050;17.416;2022-09-29T07:02:11;99849.97;;;8.56;100.00
12666;BME280;58531;59.050;17.416;2022-09-29T07:04:39;99853.69;;;8.59;100.00
12666;BME280;58531;59.050;17.416;2022-09-29T07:07:06;99858.13;;;8.62;100.00
12666;BME280;58531;59.050;17.416;2022-09-29T07:09:33;99854.16;;;8.66;100.00
12666;BME280;58531;59.050;17.416;2022-09-29T07:12:00;99855.50;;;8.71;100.00
12666;BME280;58531;59.050;17.416;2022-09-29T07:14:27;99862.91;;;8.76;100.00
12666;BME280;58531;59.050;17.416;2022-09-29T07:16:53;99857.91;;;8.87;100.00
12666;BME280;58531;59.050;17.416;2022-09-29T07:19:20;99855.84;;;9.00;100.00
12666;BME280;58531;59.050;17.416;2022-09-29T07:21:48;99857.50;;;9.06;100.00
12666;BME280;58531;59.050;17.416;2022-09-29T07:24:16;99857.78;;;9.08;100.00
12666;BME280;58531;59.050;17.416;2022-09-29T07:26:43;99847.88;;;9.27;99.55
12666;BME280;58531;59.050;17.416;2022-09-29T07:29:10;99840.78;;;9.33;98.65
12666;BME280;58531;59.050;17.416;2022-09-29T07:31:38;99850.09;;;9.64;97.88
12666;BME280;58531;59.050;17.416;2022-09-29T07:34:04;99854.81;;;9.78;95.57
12666;BME280;58531;59.050;17.416;2022-09-29T07:36:31;99854.78;;;10.05;94.93
12666;BME280;58531;59.050;17.416;2022-09-29T07:38:59;99854.94;;;9.92;93.28
12666;BME280;58531;59.050;17.416;2022-09-29T07:41:26;99857.63;;;9.83;94.35
12666;BME280;58531;59.050;17.416;2022-09-29T07:43:53;99862.38;;;9.79;95.25
12666;BME280;58531;59.050;17.416;2022-09-29T07:46:20;99866.34;;;9.75;94.33
12666;BME280;58531;59.050;17.416;2022-09-29T07:48:47;99862.84;;;9.60;94.62
12666;BME280;58531;59.050;17.416;2022-09-29T07:51:15;99867.56;;;9.65;95.69
12666;BME280;58531;59.050;17.416;2022-09-29T07:53:43;99868.13;;;9.78;95.95
12666;BME280;58531;59.050;17.416;2022-09-29T07:56:12;99871.84;;;9.89;94.61
12666;BME280;58531;59.050;17.416;2022-09-29T07:58:40;99877.75;;;9.93;94.16
12666;BME280;58531;59.050;17.416;2022-09-29T08:01:08;99867.66;;;9.97;92.77
12666;BME280;58531;59.050;17.416;2022-09-29T08:03:37;99876.00;;;9.81;93.07
12666;BME280;58531;59.050;17.416;2022-09-29T08:06:05;99879.25;;;9.76;92.38
12666;BME280;58531;59.050;17.416;2022-09-29T08:08:34;99877.78;;;9.48;93.34
12666;BME280;58531;59.050;17.416;2022-09-29T08:11:02;99878.25;;;9.47;94.43
12666;BME280;58531;59.050;17.416;2022-09-29T08:13:31;99877.47;;;9.55;94.07
12666;BME280;58531;59.050;17.416;2022-09-29T08:16:01;99873.94;;;9.58;93.49
12666;BME280;58531;59.050;17.416;2022-09-29T08:18:29;99879.38;;;9.82;93.29
12666;BME280;58531;59.050;17.416;2022-09-29T08:20:56;99873.16;;;9.94;92.78
12666;BME280;58531;59.050;17.416;2022-09-29T08:23:23;99877.72;;;10.11;91.20
12666;BME280;58531;59.050;17.416;2022-09-29T08:25:57;99880.66;;;10.31;91.81
12666;BME280;58531;59.050;17.416;2022-09-29T08:28:24;99877.53;;;10.33;89.18
12666;BME280;58531;59.050;17.416;2022-09-29T08:30:52;99886.25;;;10.42;89.54
12666;BME280;58531;59.050;17.416;2022-09-29T08:33:19;99888.63;;;10.40;88.22
12666;BME280;58531;59.050;17.416;2022-09-29T08:35:46;99884.78;;;10.41;88.64
12666;BME280;58531;59.050;17.416;2022-09-29T08:38:20;99886.44;;;10.62;88.38
12666;BME280;58531;59.050;17.416;2022-09-29T08:40:47;99877.88;;;10.58;86.74
12666;BME280;58531;59.050;17.416;2022-09-29T08:43:16;99880.13;;;10.83;85.50
12666;BME280;58531;59.050;17.416;2022-09-29T08:45:46;99883.59;;;10.98;84.30
12666;BME280;58531;59.050;17.416;2022-09-29T08:48:19;99882.00;;;11.15;83.55
12666;BME280;58531;59.050;17.416;2022-09-29T08:50:50;99884.78;;;10.97;83.38
12666;BME280;58531;59.050;17.416;2022-09-29T08:53:21;99879.34;;;10.91;83.75
12666;BME280;58531;59.050;17.416;2022-09-29T08:55:52;99876.09;;;11.11;83.81
12666;BME280;58531;59.050;17.416;2022-09-29T08:58:20;99881.63;;;11.07;82.72
12666;BME280;58531;59.050;17.416;2022-09-29T09:00:57;99881.19;;;11.00;83.24
12666;BME280;58531;59.050;17.416;2022-09-29T09:03:42;99879.09;;;11.27;82.93
12666;BME280;58531;59.050;17.416;2022-09-29T09:06:19;99890.19;;;10.88;82.68
12666;BME280;58531;59.050;17.416;2022-09-29T09:09:06;99888.78;;;10.69;82.62
12666;BME280;58531;59.050;17.416;2022-09-29T09:11:50;99883.66;;;10.57;84.90
12666;BME280;58531;59.050;17.416;2022-09-29T09:14:30;99891.25;;;10.49;85.11
12666;BME280;58531;59.050;17.416;2022-09-29T09:17:08;99891.59;;;10.42;84.68
12666;BME280;58531;59.050;17.416;2022-09-29T09:20:13;99897.47;;;10.55;84.76
12666;BME280;58531;59.050;17.416;2022-09-29T09:22:49;99893.97;;;10.40;83.60
12666;BME280;58531;59.050;17.416;2022-09-29T09:25:27;99894.25;;;10.42;83.85
12666;BME280;58531;59.050;17.416;2022-09-29T09:28:02;99904.44;;;10.53;84.50
12666;BME280;58531;59.050;17.416;2022-09-29T09:30:35;99897.75;;;10.57;83.17
12666;BME280;58531;59.050;17.416;2022-09-29T09:33:08;99893.56;;;10.65;82.49
12666;BME280;58531;59.050;17.416;2022-09-29T09:35:42;99895.69;;;10.84;82.02
12666;BME280;58531;59.050;17.416;2022-09-29T09:38:14;99898.31;;;10.93;81.55
12666;BME280;58531;59.050;17.416;2022-09-29T09:40:44;99894.84;;;11.02;81.06
12666;BME280;58531;59.050;17.416;2022-09-29T09:43:15;99899.81;;;11.18;81.10
12666;BME280;58531;59.050;17.416;2022-09-29T09:45:48;99891.81;;;11.32;79.82
12666;BME280;58531;59.050;17.416;2022-09-29T09:48:20;99892.44;;;11.51;79.53
12666;BME280;58531;59.050;17.416;2022-09-29T09:50:50;99894.63;;;11.76;78.11
12666;BME280;58531;59.050;17.416;2022-09-29T09:53:21;99899.16;;;11.70;77.69
12666;BME280;58531;59.050;17.416;2022-09-29T09:56:08;99894.44;;;11.79;77.48
12666;BME280;58531;59.050;17.416;2022-09-29T09:58:51;99900.47;;;12.17;77.65
12666;BME280;58531;59.050;17.416;2022-09-29T10:01:22;99895.47;;;12.25;75.40
12666;BME280;58531;59.050;17.416;2022-09-29T10:03:49;99901.03;;;12.21;76.19
12666;BME280;58531;59.050;17.416;2022-09-29T10:06:17;99899.19;;;12.27;76.15
12666;BME280;58531;59.050;17.416;2022-09-29T10:08:44;99906.09;;;12.19;77.25
12666;BME280;58531;59.050;17.416;2022-09-29T10:11:23;99907.28;;;12.18;75.60
12666;BME280;58531;59.050;17.416;2022-09-29T10:13:57;99905.81;;;12.17;75.65
12666;BME280;58531;59.050;17.416;2022-09-29T10:16:27;99906.19;;;11.81;77.42
12666;BME280;58531;59.050;17.416;2022-09-29T10:18:57;99910.41;;;11.88;76.81
12666;BME280;58531;59.050;17.416;2022-09-29T10:21:37;99912.28;;;11.96;76.66
12666;BME280;58531;59.050;17.416;2022-09-29T10:24:05;99909.56;;;11.82;75.48
12666;BME280;58531;59.050;17.416;2022-09-29T10:26:46;99919.91;;;11.75;77.25
12666;BME280;58531;59.050;17.416;2022-09-29T10:29:20;99916.81;;;11.90;77.30
12666;BME280;58531;59.050;17.416;2022-09-29T10:32:00;99913.22;;;11.93;76.17
12666;BME280;58531;59.050;17.416;2022-09-29T10:34:28;99911.72;;;11.92;76.85
12666;BME280;58531;59.050;17.416;2022-09-29T10:37:00;99922.22;;;11.81;75.96
12666;BME280;58531;59.050;17.416;2022-09-29T10:39:32;99919.00;;;11.77;77.17
12666;BME280;58531;59.050;17.416;2022-09-29T10:41:59;99923.97;;;11.47;76.84
12666;BME280;58531;59.050;17.416;2022-09-29T10:44:31;99919.56;;;11.20;78.49
12666;BME280;58531;59.050;17.416;2022-09-29T10:46:58;99923.53;;;11.25;78.08
12666;BME280;58531;59.050;17.416;2022-09-29T10:49:27;99919.38;;;11.24;76.45
12666;BME280;58531;59.050;17.416;2022-09-29T10:52:03;99911.25;;;11.42;76.81
12666;BME280;58531;59.050;17.416;2022-09-29T10:54:35;99921.94;;;11.65;76.16
12666;BME280;58531;59.050;17.416;2022-09-29T10:57:11;99909.84;;;11.70;74.78
12666;BME280;58531;59.050;17.416;2022-09-29T10:59:45;99906.75;;;11.85;74.32
12666;BME280;58531;59.050;17.416;2022-09-29T11:02:20;99910.13;;;11.86;73.58
12666;BME280;58531;59.050;17.416;2022-09-29T11:04:49;99904.34;;;11.87;73.32
12666;BME280;58531;59.050;17.416;2022-09-29T11:07:18;99921.31;;;11.84;72.03
12666;BME280;58531;59.050;17.416;2022-09-29T11:09:45;99904.69;;;11.80;71.20
12666;BME280;58531;59.050;17.416;2022-09-29T11:12:25;99912.81;;;12.00;72.02
12666;BME280;58531;59.050;17.416;2022-09-29T11:14:53;99913.56;;;12.15;71.68
12666;BME280;58531;59.050;17.416;2022-09-29T11:17:21;99924.09;;;12.33;69.74
12666;BME280;58531;59.050;17.416;2022-09-29T11:19:49;99910.06;;;12.38;70.56
12666;BME280;58531;59.050;17.416;2022-09-29T11:22:34;99922.06;;;12.43;67.69
12666;BME280;58531;59.050;17.416;2022-09-29T11:25:23;99914.22;;;12.39;67.97
12666;BME280;58531;59.050;17.416;2022-09-29T11:28:02;99907.66;;;12.11;67.96
12666;BME280;58531;59.050;17.416;2022-09-29T11:30:42;99915.22;;;11.98;67.76
12666;BME280;58531;59.050;17.416;2022-09-29T11:33:22;99919.13;;;11.97;69.18
12666;BME280;58531;59.050;17.416;2022-09-29T11:35:57;99916.66;;;11.71;67.65
12666;BME280;58531;59.050;17.416;2022-09-29T11:38:56;99912.53;;;11.70;65.08
12666;BME280;58531;59.050;17.416;2022-09-29T11:41:38;99907.44;;;11.72;63.78
12666;BME280;58531;59.050;17.416;2022-09-29T11:44:18;99895.84;;;11.75;63.35
12666;BME280;58531;59.050;17.416;2022-09-29T11:46:58;99909.69;;;12.02;64.12
12666;BME280;58531;59.050;17.416;2022-09-29T11:49:42;99904.47;;;12.56;62.48
12666;BME280;58531;59.050;17.416;2022-09-29T11:52:36;99901.66;;;13.14;58.18
12666;BME280;58531;59.050;17.416;2022-09-29T11:55:35;99905.16;;;13.40;57.43
12666;BME280;58531;59.050;17.416;2022-09-29T11:58:19;99905.91;;;13.40;58.67
12666;BME280;58531;59.050;17.416;2022-09-29T12:01:01;99909.06;;;13.39;58.54
12666;BME280;58531;59.050;17.416;2022-09-29T12:03:36;99905.50;;;13.27;59.69
12666;BME280;58531;59.050;17.416;2022-09-29T12:06:26;99910.19;;;13.32;58.49
12666;BME280;58531;59.050;17.416;2022-09-29T12:09:05;99903.41;;;12.97;59.34
12666;BME280;58531;59.050;17.416;2022-09-29T12:11:44;99901.66;;;12.80;61.06
12666;BME280;58531;59.050;17.416;2022-09-29T12:14:19;99904.44;;;12.85;62.18
12666;BME280;58531;59.050;17.416;2022-09-29T12:16:52;99902.88;;;12.93;61.86
12666;BME280;58531;59.050;17.416;2022-09-29T12:19:23;99899.41;;;12.73;61.79
12666;BME280;58531;59.050;17.416;2022-09-29T12:21:54;99908.25;;;12.64;64.32
12666;BME280;58531;59.050;17.416;2022-09-29T12:24:29;99905.81;;;12.95;61.31
12666;BME280;58531;59.050;17.416;2022-09-29T12:26:59;99897.13;;;13.20;61.64
12666;BME280;58531;59.050;17.416;2022-09-29T12:29:32;99911.34;;;13.46;58.71
12666;BME280;58531;59.050;17.416;2022-09-29T12:32:06;99901.94;;;13.36;57.70
12666;BME280;58531;59.050;17.416;2022-09-29T12:34:41;99910.81;;;13.42;56.88
12666;BME280;58531;59.050;17.416;2022-09-29T12:37:15;99906.38;;;13.19;56.73
12666;BME280;58531;59.050;17.416;2022-09-29T12:39:49;99905.19;;;12.71;57.89
12666;BME280;58531;59.050;17.416;2022-09-29T12:42:34;99913.50;;;12.73;58.81
12666;BME280;58531;59.050;17.416;2022-09-29T12:45:07;99909.78;;;12.85;60.13
12666;BME280;58531;59.050;17.416;2022-09-29T12:47:47;99907.13;;;12.85;59.39
12666;BME280;58531;59.050;17.416;2022-09-29T12:50:18;99903.53;;;12.74;61.61
12666;BME280;58531;59.050;17.416;2022-09-29T12:52:51;99904.81;;;12.78;60.76
12666;BME280;58531;59.050;17.416;2022-09-29T12:55:26;99908.97;;;12.79;60.56
12666;BME280;58531;59.050;17.416;2022-09-29T12:57:59;99912.78;;;12.73;60.75
12666;BME280;58531;59.050;17.416;2022-09-29T13:00:30;99910.19;;;12.78;61.84
12666;BME280;58531;59.050;17.416;2022-09-29T13:03:28;99916.16;;;12.88;61.71
12666;BME280;58531;59.050;17.416;2022-09-29T13:06:13;99917.59;;;12.54;61.98
12666;BME280;58531;59.050;17.416;2022-09-29T13:08:57;99920.22;;;12.34;62.75
12666;BME280;58531;59.050;17.416;2022-09-29T13:11:47;99915.88;;;12.08;65.10
12666;BME280;58531;59.050;17.416;2022-09-29T13:14:33;99920.03;;;11.94;65.15